X51 weather

Miami Homestead General Aviation Airport
Homestead, Florida, United States

Public forecast

Using degrees Fahrenheit for public forecast. Weather courtesy of forecast.io.

METAR (pilot weather report)

Closest report is Homestead ARB Airport, 9.3 nm (17.2 km) E. Retrieved 2019/07/21 08:56 UTC (53 minutes ago):

KHST 210856Z AUTO 00000KT 10SM OVC170 25/24 A3001 RMK AO2 SLP166 60000 T02520238 55009 $

TAF (pilot weather forecast)

Closest forecast is Homestead ARB Airport, 9.3 nm (17.2 km) E. Retrieved 2019/07/21 08:08 UTC (2 hours ago):

TAF KHST 210800Z 2108/2214 11009KT 9999 BKN020 BKN050 QNH2995INS BECMG 2117/2118 10009KT 9999 FEW030 SCT080 SCT200 QNH2998INS TEMPO 2118/2120 8000 -SHRA TX31/2118Z TN23/2109Z